createdAt,value
2018-03-06T00:02:04.790Z,9.27
2018-03-06T00:04:32.229Z,14.33
2018-03-06T00:06:59.673Z,11.90
2018-03-06T00:09:27.128Z,6.97
2018-03-06T00:11:54.589Z,14.23
2018-03-06T00:14:22.060Z,11.07
2018-03-06T00:16:50.143Z,10.20
2018-03-06T00:19:17.851Z,8.17
2018-03-06T00:21:45.321Z,10.87
2018-03-06T00:24:13.519Z,8.60
2018-03-06T00:26:40.949Z,8.53
2018-03-06T00:29:08.409Z,7.97
2018-03-06T00:31:35.866Z,8.77
2018-03-06T00:34:04.094Z,7.33
2018-03-06T00:36:31.533Z,12.30
2018-03-06T00:38:58.972Z,7.60
2018-03-06T00:41:27.216Z,10.93
2018-03-06T00:43:54.678Z,11.23
2018-03-06T00:46:22.445Z,11.87
2018-03-06T00:48:50.025Z,10.83
2018-03-06T00:51:17.742Z,10.30
2018-03-06T00:53:45.215Z,18.73
2018-03-06T00:56:12.652Z,9.40
2018-03-06T00:58:40.102Z,5.97
2018-03-06T01:01:07.533Z,7.17
2018-03-06T01:03:34.976Z,8.20
2018-03-06T01:06:02.437Z,7.43
2018-03-06T01:08:29.872Z,8.23
2018-03-06T01:10:57.776Z,19.03
2018-03-06T01:13:25.239Z,10.27
2018-03-06T01:15:52.695Z,12.53
2018-03-06T01:18:20.154Z,9.87
2018-03-06T01:20:47.597Z,7.73
2018-03-06T01:23:15.061Z,16.20
2018-03-06T01:25:42.539Z,16.63
2018-03-06T01:28:09.982Z,7.37
2018-03-06T01:30:37.438Z,7.40
2018-03-06T01:33:04.881Z,11.70
2018-03-06T01:35:32.342Z,11.43
2018-03-06T01:37:59.795Z,9.43
2018-03-06T01:40:27.246Z,9.83
2018-03-06T01:42:54.713Z,6.23
2018-03-06T01:45:22.164Z,5.87
2018-03-06T01:47:49.621Z,16.90
2018-03-06T01:50:17.065Z,12.43
2018-03-06T01:52:44.506Z,13.10
2018-03-06T02:01:55.123Z,6.83
2018-03-06T02:04:22.564Z,12.60
2018-03-06T02:06:50.040Z,10.93
2018-03-06T02:09:17.645Z,35.60
2018-03-06T02:11:45.102Z,8.67
2018-03-06T02:14:12.582Z,11.30
2018-03-06T02:16:40.048Z,16.63
2018-03-06T02:19:08.273Z,15.90
2018-03-06T02:21:35.738Z,20.03
2018-03-06T02:24:03.197Z,12.40
2018-03-06T02:26:30.653Z,13.13
2018-03-06T02:28:58.089Z,14.03
2018-03-06T02:31:25.595Z,16.40
2018-03-06T02:33:53.058Z,18.00
2018-03-06T02:36:20.497Z,14.07
2018-03-06T02:38:47.943Z,16.17
2018-03-06T02:41:16.034Z,9.23
2018-03-06T02:43:43.491Z,25.23
2018-03-06T02:46:12.723Z,15.70
2018-03-06T02:48:40.176Z,20.47
2018-03-06T02:51:07.638Z,12.60
2018-03-06T02:53:35.085Z,8.83
2018-03-06T02:56:02.542Z,17.90
2018-03-06T02:58:29.977Z,14.83
2018-03-06T03:00:57.422Z,13.50
2018-03-06T03:03:25.838Z,20.83
2018-03-06T03:05:53.281Z,17.20
2018-03-06T03:08:20.726Z,14.97
2018-03-06T03:10:48.182Z,16.90
2018-03-06T03:13:15.634Z,17.03
2018-03-06T03:15:43.072Z,16.13
2018-03-06T03:18:10.542Z,17.40
2018-03-06T03:20:38.302Z,16.07
2018-03-06T03:23:05.743Z,9.63
2018-03-06T03:25:33.201Z,17.07
2018-03-06T03:28:00.649Z,21.67
2018-03-06T03:30:28.110Z,13.87
2018-03-06T03:32:55.557Z,12.77
2018-03-06T03:35:23.003Z,9.77
2018-03-06T03:37:50.444Z,15.90
2018-03-06T03:40:17.909Z,20.50
2018-03-06T03:42:45.378Z,19.57
2018-03-06T03:45:12.821Z,12.87
2018-03-06T03:47:40.281Z,19.23
2018-03-06T03:50:07.726Z,21.27
2018-03-06T03:52:35.203Z,49.40
2018-03-06T03:55:02.646Z,17.33
2018-03-06T03:57:30.085Z,17.00
2018-03-06T03:59:57.545Z,21.13
2018-03-06T04:02:24.994Z,19.67
2018-03-06T04:04:52.805Z,27.47
2018-03-06T04:07:20.249Z,17.10
2018-03-06T04:09:47.837Z,28.13
2018-03-06T04:12:15.322Z,18.00
2018-03-06T04:14:42.762Z,21.63
2018-03-06T04:17:10.217Z,11.83
2018-03-06T04:19:37.685Z,33.13
2018-03-06T04:22:05.146Z,24.00
2018-03-06T04:24:32.624Z,24.20
2018-03-06T04:27:00.095Z,18.00
2018-03-06T04:29:27.553Z,21.73
2018-03-06T04:31:55.013Z,19.40
2018-03-06T04:34:22.457Z,24.23
2018-03-06T04:36:49.921Z,25.17
2018-03-06T04:39:17.374Z,23.90
2018-03-06T04:41:45.146Z,26.33
2018-03-06T04:44:12.594Z,25.20
2018-03-06T04:46:40.036Z,16.83
2018-03-06T04:49:07.497Z,17.03
2018-03-06T04:51:34.958Z,20.77
2018-03-06T04:54:02.406Z,15.90
2018-03-06T04:56:29.844Z,16.57
2018-03-06T04:58:57.281Z,25.13
2018-03-06T05:01:24.889Z,26.43
2018-03-06T05:03:52.600Z,30.70
2018-03-06T05:06:20.083Z,24.13
2018-03-06T05:08:47.514Z,23.27
2018-03-06T05:11:14.975Z,34.33
2018-03-06T05:13:42.670Z,25.37
2018-03-06T05:16:10.132Z,23.97
2018-03-06T05:18:39.101Z,15.57
2018-03-06T05:21:06.549Z,32.57
2018-03-06T05:23:33.988Z,27.33
2018-03-06T05:26:01.464Z,28.77
2018-03-06T05:28:28.910Z,22.57
2018-03-06T05:30:56.377Z,24.47
2018-03-06T05:33:23.834Z,32.27
2018-03-06T05:35:51.312Z,48.17
2018-03-06T05:38:18.759Z,23.37
2018-03-06T05:40:46.219Z,28.67
2018-03-06T05:43:13.697Z,23.97
2018-03-06T05:45:41.145Z,17.37
2018-03-06T05:48:08.596Z,13.80
2018-03-06T05:50:36.045Z,15.50
2018-03-06T05:53:03.480Z,25.57
2018-03-06T05:55:30.950Z,20.00
2018-03-06T05:57:58.411Z,26.83
2018-03-06T06:00:25.854Z,19.90
2018-03-06T06:02:53.314Z,30.07
2018-03-06T06:05:20.754Z,28.33
2018-03-06T06:07:48.208Z,23.30
2018-03-06T06:10:15.675Z,24.97
2018-03-06T06:12:43.118Z,19.50
2018-03-06T06:15:10.577Z,18.20
2018-03-06T06:17:38.030Z,17.77
2018-03-06T06:20:05.937Z,18.27
2018-03-06T06:22:33.385Z,19.80
2018-03-06T06:25:00.820Z,27.63
2018-03-06T06:27:28.291Z,23.03
2018-03-06T06:29:55.733Z,34.70
2018-03-06T06:32:23.190Z,20.00
2018-03-06T06:34:50.637Z,17.60
2018-03-06T06:37:18.351Z,36.73
2018-03-06T06:39:45.805Z,19.27
2018-03-06T06:42:13.245Z,24.20
2018-03-06T06:44:41.061Z,28.97
2018-03-06T06:47:08.560Z,27.63
2018-03-06T06:49:36.006Z,47.10
2018-03-06T06:52:03.465Z,20.10
2018-03-06T06:54:30.909Z,22.27
2018-03-06T06:56:58.370Z,25.13
2018-03-06T06:59:25.844Z,25.27
2018-03-06T07:01:56.584Z,20.77
2018-03-06T07:04:24.098Z,23.73
2018-03-06T07:06:51.772Z,16.77
2018-03-06T07:09:19.782Z,18.23
2018-03-06T07:11:47.267Z,36.00
2018-03-06T07:14:14.712Z,35.00
2018-03-06T07:16:42.176Z,33.23
2018-03-06T07:19:09.642Z,20.10
2018-03-06T07:21:37.126Z,25.87
2018-03-06T07:24:05.343Z,22.37
2018-03-06T07:26:32.831Z,18.87
2018-03-06T07:29:00.246Z,21.47
2018-03-06T07:31:27.706Z,15.87
2018-03-06T07:33:56.012Z,21.63
2018-03-06T07:36:23.445Z,25.43
2018-03-06T07:38:50.912Z,18.40
2018-03-06T07:41:18.379Z,32.67
2018-03-06T07:43:45.818Z,21.47
2018-03-06T07:46:14.050Z,25.07
2018-03-06T07:48:41.498Z,28.83
2018-03-06T07:51:08.945Z,41.88
2018-03-06T07:53:36.417Z,38.53
2018-03-06T07:56:03.863Z,47.80
2018-03-06T07:58:31.309Z,42.77
2018-03-06T08:00:58.765Z,31.67
2018-03-06T08:03:26.434Z,24.07
2018-03-06T08:05:53.882Z,29.27
2018-03-06T08:08:22.085Z,28.80
2018-03-06T08:10:49.548Z,32.10
2018-03-06T08:13:17.265Z,35.47
2018-03-06T08:15:44.709Z,32.47
2018-03-06T08:18:12.170Z,33.30
2018-03-06T08:20:39.620Z,44.35
2018-03-06T08:23:07.084Z,44.08
2018-03-06T08:25:34.534Z,32.77
2018-03-06T08:28:01.986Z,44.33
2018-03-06T08:30:29.450Z,40.53
2018-03-06T08:32:56.915Z,45.42
2018-03-06T08:35:24.380Z,33.63
2018-03-06T08:37:51.831Z,36.23
2018-03-06T08:40:19.276Z,37.00
2018-03-06T08:42:46.737Z,43.50
2018-03-06T08:45:14.192Z,36.37
2018-03-06T08:47:41.655Z,42.25
2018-03-06T08:50:09.116Z,44.40
2018-03-06T08:52:36.558Z,45.63
2018-03-06T08:55:04.017Z,43.77
2018-03-06T08:57:31.485Z,37.23
2018-03-06T08:59:58.957Z,35.77
2018-03-06T09:02:26.424Z,48.70
2018-03-06T09:04:53.876Z,45.30
2018-03-06T09:07:21.341Z,47.58
2018-03-06T09:09:48.801Z,47.22
2018-03-06T09:12:16.269Z,42.50
2018-03-06T09:14:44.493Z,39.33
2018-03-06T09:17:11.945Z,50.07
2018-03-06T09:19:39.413Z,43.40
2018-03-06T09:22:06.862Z,37.17
2018-03-06T09:24:34.326Z,32.47
2018-03-06T09:27:01.782Z,35.53
2018-03-06T09:29:29.233Z,37.67
2018-03-06T09:31:56.698Z,35.17
2018-03-06T09:34:24.150Z,42.13
2018-03-06T09:36:52.207Z,41.03
2018-03-06T09:39:19.624Z,48.83
2018-03-06T09:41:47.078Z,35.37
2018-03-06T09:44:14.579Z,37.30
2018-03-06T09:46:42.018Z,34.53
2018-03-06T09:49:09.486Z,35.50
2018-03-06T09:51:36.954Z,44.20
2018-03-06T09:54:04.401Z,48.85
2018-03-06T09:56:31.865Z,47.40
2018-03-06T09:58:59.312Z,37.93
2018-03-06T10:01:26.792Z,43.43
2018-03-06T10:06:21.698Z,45.23
2018-03-06T10:08:49.163Z,33.57
2018-03-06T10:11:17.478Z,41.37
2018-03-06T10:13:44.946Z,48.33
2018-03-06T10:16:13.164Z,44.13
2018-03-06T10:18:40.603Z,56.40
2018-03-06T10:21:08.073Z,49.35
2018-03-06T10:23:35.527Z,37.60
2018-03-06T10:26:02.989Z,32.87
2018-03-06T10:28:30.434Z,37.47
2018-03-06T10:30:57.886Z,38.63
2018-03-06T10:33:25.548Z,33.53
2018-03-06T10:35:53.020Z,51.95
2018-03-06T10:38:20.549Z,45.00
2018-03-06T10:40:47.995Z,38.07
2018-03-06T10:43:15.441Z,46.90
2018-03-06T10:45:43.402Z,46.40
2018-03-06T10:48:11.141Z,49.73
2018-03-06T10:50:40.176Z,37.53
2018-03-06T10:53:07.627Z,37.83
2018-03-06T10:55:35.841Z,41.33
2018-03-06T10:58:03.296Z,48.38
2018-03-06T11:00:36.429Z,43.33
2018-03-06T11:03:03.902Z,33.60
2018-03-06T11:05:31.383Z,38.30
2018-03-06T11:07:58.829Z,34.13
2018-03-06T11:10:26.299Z,41.83
2018-03-06T11:12:53.751Z,46.77
2018-03-06T11:15:21.973Z,45.63
2018-03-06T11:17:49.453Z,49.90
2018-03-06T11:20:16.919Z,42.73
2018-03-06T11:22:44.362Z,39.60
2018-03-06T11:25:12.069Z,44.97
2018-03-06T11:27:39.604Z,45.65
2018-03-06T11:30:07.080Z,50.10
2018-03-06T11:32:34.524Z,42.73
2018-03-06T11:35:02.150Z,41.77
2018-03-06T11:37:29.585Z,36.87
2018-03-06T11:39:57.801Z,37.83
2018-03-06T11:42:25.258Z,29.37
2018-03-06T11:44:53.482Z,39.50
2018-03-06T11:47:21.567Z,44.63
2018-03-06T11:49:50.061Z,39.13
2018-03-06T11:52:17.508Z,38.00
2018-03-06T11:54:44.966Z,31.70
2018-03-06T11:57:12.836Z,35.00
2018-03-06T11:59:40.298Z,39.40
2018-03-06T12:02:07.792Z,31.60
2018-03-06T12:04:35.222Z,39.20
2018-03-06T12:07:02.670Z,38.27
2018-03-06T12:09:30.139Z,44.10
2018-03-06T12:11:57.580Z,38.80
2018-03-06T12:14:25.028Z,39.80
2018-03-06T12:16:56.121Z,41.60
2018-03-06T12:19:23.560Z,39.93
2018-03-06T12:21:51.021Z,41.70
2018-03-06T12:24:18.466Z,28.27
2018-03-06T12:26:45.921Z,38.87
2018-03-06T12:29:13.464Z,39.30
2018-03-06T12:31:40.917Z,50.03
2018-03-06T12:34:08.395Z,41.30
2018-03-06T12:36:36.609Z,50.50
2018-03-06T12:39:04.068Z,41.63
2018-03-06T12:41:32.507Z,48.13
2018-03-06T12:44:00.048Z,40.00
2018-03-06T12:46:27.499Z,34.03
2018-03-06T12:48:55.113Z,34.47
2018-03-06T12:51:22.573Z,39.67
2018-03-06T12:53:50.029Z,36.43
2018-03-06T12:56:17.870Z,41.07
2018-03-06T12:58:45.814Z,41.27
2018-03-06T13:01:13.512Z,42.13
2018-03-06T13:03:40.962Z,50.90
2018-03-06T13:06:08.943Z,39.07
2018-03-06T13:08:36.377Z,44.40
2018-03-06T13:11:03.871Z,40.00
2018-03-06T13:13:31.413Z,45.10
2018-03-06T13:15:58.859Z,43.23
2018-03-06T13:18:26.314Z,40.40
2018-03-06T13:20:53.766Z,36.43
2018-03-06T13:23:21.221Z,35.10
2018-03-06T13:25:48.685Z,48.05
2018-03-06T13:28:16.125Z,39.65
2018-03-06T13:30:44.384Z,43.47
2018-03-06T13:33:11.857Z,39.63
2018-03-06T13:35:40.089Z,53.77
2018-03-06T13:38:07.569Z,36.93
2018-03-06T13:40:35.009Z,39.93
2018-03-06T13:43:02.722Z,39.13
2018-03-06T13:45:30.187Z,39.45
2018-03-06T13:47:57.638Z,37.33
2018-03-06T13:50:25.117Z,33.00
2018-03-06T13:52:52.565Z,38.00
2018-03-06T13:55:20.034Z,41.03
2018-03-06T13:57:47.498Z,37.30
2018-03-06T14:00:14.953Z,39.00
2018-03-06T14:02:42.608Z,43.90
2018-03-06T14:05:10.065Z,45.93
2018-03-06T14:07:37.515Z,32.30
2018-03-06T14:10:04.971Z,33.50
2018-03-06T14:12:32.409Z,35.57
2018-03-06T14:15:00.289Z,35.97
2018-03-06T14:17:27.866Z,27.83
2018-03-06T14:19:55.325Z,30.63
2018-03-06T14:22:23.107Z,34.27
2018-03-06T14:24:50.587Z,32.73
2018-03-06T14:27:18.046Z,34.90
2018-03-06T14:29:45.489Z,27.93
2018-03-06T14:32:12.956Z,32.13
2018-03-06T14:34:40.405Z,38.17
2018-03-06T14:37:07.857Z,35.33
2018-03-06T14:39:35.317Z,43.57
2018-03-06T14:42:03.115Z,35.33
2018-03-06T14:47:04.044Z,27.80
2018-03-06T14:49:31.498Z,34.13
2018-03-06T14:51:58.945Z,31.67
2018-03-06T14:54:26.422Z,40.30
2018-03-06T14:56:53.873Z,35.23
2018-03-06T14:59:21.328Z,29.30
2018-03-06T15:01:58.246Z,37.87
2018-03-06T15:04:25.711Z,31.80
2018-03-06T15:06:53.137Z,29.53
2018-03-06T15:09:20.619Z,36.40
2018-03-06T15:11:48.070Z,35.10
2018-03-06T15:14:15.543Z,40.53
2018-03-06T15:16:42.993Z,27.80
2018-03-06T15:19:10.429Z,32.47
2018-03-06T15:21:37.963Z,32.23
2018-03-06T15:24:05.397Z,33.03
2018-03-06T15:26:32.968Z,32.27
2018-03-06T15:29:00.413Z,33.17
2018-03-06T15:31:27.876Z,31.43
2018-03-06T15:33:55.359Z,28.13
2018-03-06T15:36:22.810Z,28.80
2018-03-06T15:38:50.265Z,31.53
2018-03-06T15:41:17.727Z,29.93
2018-03-06T15:43:45.179Z,25.43
2018-03-06T15:46:12.646Z,29.13
2018-03-06T15:48:40.102Z,32.27
2018-03-06T15:51:07.572Z,34.60
2018-03-06T15:53:35.015Z,27.73
2018-03-06T15:56:02.465Z,29.60
2018-03-06T15:58:29.927Z,35.93
2018-03-06T16:00:57.364Z,30.03
2018-03-06T16:03:24.823Z,32.37
2018-03-06T16:05:52.264Z,35.97
2018-03-06T16:08:19.715Z,32.83
2018-03-06T16:10:47.176Z,26.73
2018-03-06T16:13:14.621Z,31.50
2018-03-06T16:15:42.083Z,29.90
2018-03-06T16:18:09.518Z,29.77
2018-03-06T16:20:37.151Z,30.33
2018-03-06T16:23:04.633Z,37.07
2018-03-06T16:25:32.850Z,36.90
2018-03-06T16:28:00.584Z,28.57
2018-03-06T16:30:28.037Z,42.10
2018-03-06T16:32:55.477Z,36.77
2018-03-06T16:35:23.432Z,32.03
2018-03-06T16:37:50.909Z,28.57
2018-03-06T16:40:18.364Z,35.03
2018-03-06T16:42:45.814Z,31.60
2018-03-06T16:45:13.257Z,29.13
2018-03-06T16:47:40.718Z,34.00
2018-03-06T16:50:08.179Z,27.20
2018-03-06T16:52:35.637Z,32.73
2018-03-06T16:55:03.134Z,30.37
2018-03-06T16:57:30.580Z,28.60
2018-03-06T16:59:58.055Z,30.00
2018-03-06T17:02:25.498Z,32.60
2018-03-06T17:04:52.986Z,37.47
2018-03-06T17:07:20.410Z,35.93
2018-03-06T17:09:48.163Z,26.83
2018-03-06T17:12:15.626Z,32.87
2018-03-06T17:14:43.069Z,30.47
2018-03-06T17:17:10.615Z,38.83
2018-03-06T17:19:38.064Z,34.67
2018-03-06T17:22:05.540Z,34.77
2018-03-06T17:24:32.998Z,34.03
2018-03-06T17:27:03.073Z,50.00
2018-03-06T17:29:30.533Z,34.97
2018-03-06T17:31:57.992Z,37.23
2018-03-06T17:34:25.470Z,29.93
2018-03-06T17:36:52.909Z,38.47
2018-03-06T17:39:20.387Z,27.37
2018-03-06T17:41:47.829Z,33.90
2018-03-06T17:44:15.277Z,41.67
2018-03-06T17:46:42.726Z,49.93
2018-03-06T17:49:10.941Z,25.13
2018-03-06T17:51:38.412Z,35.17
2018-03-06T17:54:05.873Z,29.97
2018-03-06T17:56:33.322Z,41.70
2018-03-06T17:59:00.753Z,40.67
2018-03-06T18:01:28.268Z,39.67
2018-03-06T18:03:55.747Z,44.07
2018-03-06T18:06:23.159Z,41.17
2018-03-06T18:08:50.605Z,32.90
2018-03-06T18:11:18.046Z,35.57
2018-03-06T18:13:45.502Z,38.13
2018-03-06T18:16:12.949Z,38.83
2018-03-06T18:18:41.171Z,32.20
2018-03-06T18:21:08.635Z,39.47
2018-03-06T18:23:36.073Z,37.97
2018-03-06T18:26:03.518Z,38.27
2018-03-06T18:28:30.956Z,39.03
2018-03-06T18:30:58.425Z,37.90
2018-03-06T18:33:25.893Z,42.03
2018-03-06T18:35:53.390Z,36.90
2018-03-06T18:38:20.840Z,40.50
2018-03-06T18:40:48.286Z,40.63
2018-03-06T18:43:16.148Z,35.90
2018-03-06T18:45:43.581Z,45.67
2018-03-06T18:48:11.036Z,43.30
2018-03-06T18:50:50.409Z,38.37
2018-03-06T18:53:17.853Z,45.00
2018-03-06T18:55:45.326Z,32.77
2018-03-06T18:58:12.763Z,30.40
2018-03-06T19:01:00.794Z,34.07
2018-03-06T19:03:40.202Z,36.07
2018-03-06T19:06:19.489Z,28.27
2018-03-06T19:08:46.946Z,28.87
2018-03-06T19:11:14.473Z,26.43
2018-03-06T19:13:41.936Z,27.90
2018-03-06T19:16:09.380Z,28.13
2018-03-06T19:18:36.846Z,32.13
2018-03-06T19:21:04.589Z,27.13
2018-03-06T19:23:32.069Z,25.90
2018-03-06T19:25:59.528Z,24.60
2018-03-06T19:28:26.969Z,32.07
2018-03-06T19:30:54.428Z,25.43
2018-03-06T19:33:21.872Z,21.00
2018-03-06T19:35:49.493Z,26.43
2018-03-06T19:38:16.963Z,20.80
2018-03-06T19:40:44.402Z,28.60
2018-03-06T19:43:11.849Z,31.23
2018-03-06T19:45:39.307Z,23.20
2018-03-06T19:48:06.762Z,31.60
2018-03-06T19:50:34.222Z,20.17
2018-03-06T19:53:01.674Z,23.13
2018-03-06T19:55:29.119Z,24.57
2018-03-06T19:57:56.566Z,22.70
2018-03-06T20:00:24.085Z,15.77
2018-03-06T20:02:52.338Z,22.93
2018-03-06T20:05:19.781Z,15.00
2018-03-06T20:07:47.232Z,20.40
2018-03-06T20:10:15.449Z,25.83
2018-03-06T20:12:42.887Z,12.67
2018-03-06T20:15:16.250Z,11.20
2018-03-06T20:17:43.697Z,14.70
2018-03-06T20:20:11.145Z,20.37
2018-03-06T20:22:38.620Z,14.10
2018-03-06T20:25:11.610Z,17.03
2018-03-06T20:27:39.834Z,20.23
2018-03-06T20:30:07.287Z,24.33
2018-03-06T20:32:41.233Z,19.33
2018-03-06T20:35:08.684Z,15.97
2018-03-06T20:37:36.910Z,14.47
2018-03-06T20:40:10.075Z,22.97
2018-03-06T20:42:37.543Z,19.53
2018-03-06T20:45:04.998Z,13.60
2018-03-06T20:47:32.474Z,21.60
2018-03-06T20:50:00.036Z,15.83
2018-03-06T20:52:27.496Z,17.47
2018-03-06T20:55:00.653Z,13.90
2018-03-06T20:57:28.113Z,20.67
2018-03-06T20:59:55.570Z,23.03
2018-03-06T21:02:23.052Z,22.60
2018-03-06T21:04:50.521Z,15.00
2018-03-06T21:07:17.981Z,12.33
2018-03-06T21:09:45.425Z,22.53
2018-03-06T21:12:12.886Z,19.77
2018-03-06T21:14:40.342Z,14.10
2018-03-06T21:17:08.105Z,18.70
2018-03-06T21:19:35.566Z,22.53
2018-03-06T21:22:03.068Z,11.90
2018-03-06T21:24:33.497Z,21.80
2018-03-06T21:27:00.968Z,26.57
2018-03-06T21:29:28.409Z,18.73
2018-03-06T21:31:56.596Z,24.90
2018-03-06T21:34:24.049Z,19.90
2018-03-06T21:36:53.550Z,19.57
2018-03-06T21:39:20.978Z,22.27
2018-03-06T21:41:49.236Z,19.33
2018-03-06T21:44:16.727Z,20.80
2018-03-06T21:46:44.970Z,26.93
2018-03-06T21:49:12.406Z,17.07
2018-03-06T21:51:39.864Z,16.97
2018-03-06T21:54:07.325Z,18.97
2018-03-06T21:56:34.758Z,15.13
2018-03-06T21:59:03.001Z,27.73
2018-03-06T22:01:30.528Z,24.13
2018-03-06T22:03:58.148Z,15.17
2018-03-06T22:06:25.620Z,23.87
2018-03-06T22:08:53.061Z,18.73
2018-03-06T22:11:20.539Z,24.97
2018-03-06T22:13:48.003Z,22.67
2018-03-06T22:16:15.462Z,27.07
2018-03-06T22:18:42.917Z,21.27
2018-03-06T22:21:10.381Z,14.90
2018-03-06T22:23:37.834Z,19.67
2018-03-06T22:26:05.276Z,18.83
2018-03-06T22:28:32.856Z,18.70
2018-03-06T22:31:00.313Z,14.77
2018-03-06T22:33:27.781Z,17.90
2018-03-06T22:35:55.239Z,15.23
2018-03-06T22:38:22.744Z,19.97
2018-03-06T22:40:50.149Z,19.70
2018-03-06T22:43:17.606Z,14.23
2018-03-06T22:45:45.057Z,27.30
2018-03-06T22:48:12.528Z,22.40
2018-03-06T22:50:39.988Z,19.80
2018-03-06T22:53:07.431Z,25.43
2018-03-06T22:55:34.881Z,19.60
2018-03-06T22:58:02.336Z,22.90
2018-03-06T23:00:29.783Z,14.57
2018-03-06T23:02:57.238Z,18.17
2018-03-06T23:05:25.057Z,16.53
2018-03-06T23:07:52.497Z,19.60
2018-03-06T23:10:19.977Z,24.03
2018-03-06T23:12:47.423Z,20.67
2018-03-06T23:15:14.903Z,21.70
2018-03-06T23:17:42.357Z,20.00
2018-03-06T23:20:09.820Z,19.97
2018-03-06T23:22:37.288Z,22.00
2018-03-06T23:25:04.729Z,12.60
2018-03-06T23:27:32.190Z,13.77
2018-03-06T23:29:59.839Z,27.80
2018-03-06T23:32:27.271Z,19.30
2018-03-06T23:34:54.728Z,18.17
2018-03-06T23:37:22.181Z,15.10
2018-03-06T23:39:49.947Z,18.63
2018-03-06T23:42:17.386Z,23.73
2018-03-06T23:44:44.845Z,15.03
2018-03-06T23:47:12.436Z,13.10
2018-03-06T23:49:39.881Z,18.70
2018-03-06T23:52:07.379Z,23.67
2018-03-06T23:54:34.829Z,17.90
2018-03-06T23:57:02.269Z,15.67
2018-03-06T23:59:29.725Z,13.30
